UTDL

Khudzhand Airport

Khudzhand, Tajikistan
TAF UTDL 161800Z 1619/1704 24005MPS 9999 NSC
Issued Valid From Valid To
Jul-16 @ 18:00 UTC
(2 hours ago)
Jul-16 @ 19:00 UTC
(53 minutes ago)
Jul-17 @ 04:00 UTC
(in 8 hours)
Jul-16 @ 19:00 to Jul-17 @ 04:00
TAF UTDL 161800Z 1619/1704 24005MPS 9999 NSC
Wind Visibility Clouds
240° at 10 knots 10,000+ meters
  • No significant clouds
TAF UTDL 161800Z 1619/1704 24005MPS 9999 NSC
Issued Jul-16 @ 18:00 UTC
(2 hours ago)
Valid From Jul-16 @ 19:00 UTC
(53 minutes ago)
Valid To Jul-17 @ 04:00 UTC
(in 8 hours)
Jul-16 @ 19:00 - Jul-17 @ 04:00
Wind Visibility
240° at 10 knots 10,000+ meters
Clouds
  • No significant clouds